Time;durP1;ratioP1;P1;durP2;ratioP2;P2;SDS_P1;SDS_P2;PMS_P1;PMS_P2;Temp;Humidity;BMP_temperature;BMP_pressure;BME280_temperature;BME280_humidity;BME280_pressure;Samples;Min_cycle;Max_cycle;Signal;HPM_P1;HPM_P2
2021/01/12 00:00:28;;;;;;;9.73;6.95;;;17.80;52.20;;;;;;4989342;28;20034;-69
2021/01/12 00:02:55;;;;;;;10.98;7.10;;;17.60;50.30;;;;;;4992941;28;20033;-69
2021/01/12 00:05:22;;;;;;;12.85;8.52;;;17.50;50.10;;;;;;4991855;28;20102;-70
2021/01/12 00:07:48;;;;;;;8.13;6.05;;;17.50;49.80;;;;;;4992500;28;20041;-70
2021/01/12 00:10:16;;;;;;;9.10;6.72;;;17.40;49.70;;;;;;4990675;28;20018;-69
2021/01/12 00:12:42;;;;;;;10.23;6.40;;;17.30;49.40;;;;;;4993263;28;20031;-69
2021/01/12 00:15:09;;;;;;;12.57;8.52;;;17.30;50.50;;;;;;4989066;28;20460;-69
2021/01/12 00:17:36;;;;;;;11.13;7.70;;;17.20;49.50;;;;;;4990419;28;20034;-69
2021/01/12 00:20:06;;;;;;;15.45;7.00;;;17.10;49.70;;;;;;4993392;28;20034;-69
2021/01/12 00:22:32;;;;;;;11.60;7.75;;;17.00;50.40;;;;;;4990711;28;20436;-70
2021/01/12 00:24:58;;;;;;;13.93;7.10;;;17.00;50.70;;;;;;4992200;28;20035;-69
2021/01/12 00:27:25;;;;;;;13.05;7.90;;;16.90;51.30;;;;;;4990184;28;20385;-69
2021/01/12 00:29:52;;;;;;;11.27;7.20;;;17.00;52.20;;;;;;4989953;28;20034;-69
2021/01/12 00:32:26;;;;;;;16.40;7.60;;;17.00;52.30;;;;;;4987972;28;20046;-69
2021/01/12 00:34:53;;;;;;;7.78;6.47;;;17.00;52.40;;;;;;4988367;28;20031;-69
2021/01/12 00:37:20;;;;;;;12.85;7.25;;;16.90;52.20;;;;;;4989158;28;20126;-69
2021/01/12 00:39:47;;;;;;;14.90;8.25;;;16.80;51.80;;;;;;4994422;28;20040;-69
2021/01/12 00:42:14;;;;;;;13.57;8.23;;;16.70;50.70;;;;;;4995680;28;20057;-69
2021/01/12 00:44:40;;;;;;;19.55;9.18;;;16.50;51.60;;;;;;4994901;28;20018;-70
2021/01/12 00:47:08;;;;;;;17.55;7.72;;;16.30;51.90;;;;;;4997014;28;20054;-69
2021/01/12 00:49:34;;;;;;;18.17;8.30;;;16.40;52.70;;;;;;4997745;28;21527;-70
2021/01/12 00:52:01;;;;;;;14.88;7.80;;;16.30;53.50;;;;;;4994228;28;20018;-69
2021/01/12 00:54:27;;;;;;;17.88;7.97;;;16.30;54.00;;;;;;4997516;28;20026;-75
2021/01/12 00:56:55;;;;;;;14.30;7.57;;;16.10;54.10;;;;;;4999920;28;20122;-71
2021/01/12 00:59:21;;;;;;;14.02;6.65;;;16.10;54.20;;;;;;4998180;28;20030;-73
2021/01/12 01:01:48;;;;;;;13.93;7.30;;;16.20;54.40;;;;;;4997446;28;20360;-70
2021/01/12 01:04:17;;;;;;;13.30;7.30;;;16.10;54.60;;;;;;4997052;28;20030;-71
2021/01/12 01:06:44;;;;;;;17.60;7.10;;;16.10;54.70;;;;;;4996541;28;20532;-70
2021/01/12 01:09:12;;;;;;;14.20;7.05;;;16.20;54.70;;;;;;4995108;28;20062;-70
2021/01/12 01:11:46;;;;;;;15.85;7.45;;;16.10;54.80;;;;;;4992287;28;20490;-70
2021/01/12 01:14:15;;;;;;;14.15;10.63;;;16.10;54.90;;;;;;4994398;28;20475;-70
2021/01/12 01:16:42;;;;;;;12.07;7.80;;;16.20;54.70;;;;;;4994495;28;20807;-70
2021/01/12 01:19:09;;;;;;;9.57;5.68;;;16.00;54.60;;;;;;4997340;28;20041;-70
2021/01/12 01:21:36;;;;;;;11.60;5.95;;;15.90;54.80;;;;;;4997794;28;20395;-70
2021/01/12 01:24:03;;;;;;;10.07;5.57;;;16.00;54.90;;;;;;4989561;28;20026;-70
2021/01/12 01:26:30;;;;;;;10.88;5.30;;;15.90;55.00;;;;;;4992787;28;20499;-70
2021/01/12 01:28:57;;;;;;;15.25;6.10;;;15.70;55.30;;;;;;4994100;28;20117;-72
2021/01/12 01:31:23;;;;;;;15.25;6.68;;;15.60;55.60;;;;;;4994618;28;20047;-69
2021/01/12 01:33:50;;;;;;;15.43;6.20;;;15.60;55.50;;;;;;4993887;28;20479;-70
2021/01/12 01:36:16;;;;;;;24.75;7.35;;;15.60;55.30;;;;;;4996456;28;20101;-75
2021/01/12 01:38:43;;;;;;;20.65;8.07;;;15.50;55.30;;;;;;5001723;28;20022;-74
2021/01/12 01:41:10;;;;;;;12.77;5.80;;;15.50;55.30;;;;;;4997563;28;20023;-69
2021/01/12 01:43:38;;;;;;;15.68;5.63;;;15.30;56.20;;;;;;4993864;28;20074;-69
2021/01/12 01:46:06;;;;;;;12.70;5.32;;;15.20;56.60;;;;;;4994519;28;20034;-70
2021/01/12 01:48:33;;;;;;;26.98;7.68;;;15.10;57.00;;;;;;4996118;28;20026;-70
2021/01/12 01:51:02;;;;;;;11.55;6.78;;;15.00;56.80;;;;;;4995015;28;20034;-70
2021/01/12 01:53:33;;;;;;;21.75;7.25;;;14.90;56.40;;;;;;4992906;28;20064;-70
2021/01/12 01:56:01;;;;;;;13.85;6.30;;;15.00;56.40;;;;;;4995180;28;20029;-69
2021/01/12 01:58:29;;;;;;;10.85;6.03;;;15.00;56.20;;;;;;4996068;28;20534;-69
2021/01/12 02:00:55;;;;;;;16.23;6.68;;;14.90;56.30;;;;;;4999221;28;20440;-71
2021/01/12 02:03:36;;;;;;;13.55;7.47;;;14.90;56.90;;;;;;4992019;28;20410;-69
2021/01/12 02:06:15;;;;;;;16.38;7.40;;;14.90;57.00;;;;;;5007253;28;20022;-69
2021/01/12 02:09:05;;;;;;;17.95;6.85;;;14.70;56.80;;;;;;4993954;28;20112;-69
2021/01/12 02:11:40;;;;;;;15.18;7.10;;;14.60;57.10;;;;;;4994302;28;20471;-69
2021/01/12 02:14:13;;;;;;;15.40;7.03;;;14.60;58.20;;;;;;4994460;28;20037;-70
2021/01/12 02:16:40;;;;;;;15.13;6.30;;;14.70;57.50;;;;;;4990339;28;20093;-69
2021/01/12 02:19:11;;;;;;;22.50;7.82;;;14.50;57.70;;;;;;4992818;28;20084;-70
2021/01/12 02:21:49;;;;;;;18.35;7.55;;;14.30;57.50;;;;;;4992402;28;20034;-69
2021/01/12 02:24:16;;;;;;;15.82;7.50;;;14.20;58.30;;;;;;4992809;28;20042;-69
2021/01/12 02:26:43;;;;;;;15.68;8.50;;;14.10;58.30;;;;;;4990831;28;20030;-69
2021/01/12 02:29:09;;;;;;;11.45;7.35;;;14.00;58.60;;;;;;4995127;28;20037;-70
2021/01/12 02:31:36;;;;;;;14.23;7.35;;;14.10;59.50;;;;;;4995701;28;20069;-70
2021/01/12 02:34:05;;;;;;;13.02;6.88;;;14.10;58.60;;;;;;4989360;28;20030;-70
2021/01/12 02:36:32;;;;;;;17.92;8.05;;;14.00;58.90;;;;;;5003633;28;20081;-70
2021/01/12 02:39:00;;;;;;;16.42;6.32;;;13.80;59.60;;;;;;4996810;28;20049;-70
2021/01/12 02:41:34;;;;;;;13.00;6.70;;;13.60;60.00;;;;;;4996028;28;20033;-70
2021/01/12 02:44:02;;;;;;;16.30;9.00;;;13.60;60.10;;;;;;4996222;28;20496;-70
2021/01/12 02:46:29;;;;;;;15.45;7.72;;;13.60;60.40;;;;;;4993758;28;20117;-70
2021/01/12 02:48:56;;;;;;;19.20;7.97;;;13.60;60.00;;;;;;4995057;28;20518;-72
2021/01/12 02:51:22;;;;;;;14.07;7.22;;;13.50;59.50;;;;;;4993610;28;20026;-69
2021/01/12 02:53:48;;;;;;;16.88;7.72;;;13.50;59.80;;;;;;4992285;28;20027;-70
2021/01/12 02:56:23;;;;;;;12.77;7.43;;;13.60;60.50;;;;;;4994479;28;20033;-70
2021/01/12 02:58:50;;;;;;;16.50;6.70;;;13.50;59.40;;;;;;4999961;28;20393;-70
2021/01/12 03:01:17;;;;;;;17.65;7.18;;;13.30;60.50;;;;;;5005938;28;20030;-70
2021/01/12 03:03:43;;;;;;;19.08;7.53;;;13.20;60.90;;;;;;4999299;28;20026;-68
2021/01/12 03:06:09;;;;;;;17.90;8.38;;;13.20;60.10;;;;;;4998230;28;20038;-72
2021/01/12 03:08:36;;;;;;;12.02;6.95;;;13.40;60.70;;;;;;4992801;28;20117;-71
2021/01/12 03:11:02;;;;;;;13.20;7.40;;;13.20;61.50;;;;;;4995178;28;20026;-71
2021/01/12 03:13:29;;;;;;;16.95;9.35;;;13.20;61.00;;;;;;4995261;28;20117;-70
2021/01/12 03:15:55;;;;;;;12.25;8.07;;;13.10;61.00;;;;;;4988933;28;20034;-71
2021/01/12 03:18:22;;;;;;;16.52;7.07;;;13.10;61.60;;;;;;4986965;28;20479;-70
2021/01/12 03:20:48;;;;;;;12.55;6.82;;;13.10;61.80;;;;;;4984729;28;20026;-69
2021/01/12 03:23:15;;;;;;;19.65;10.07;;;13.10;61.80;;;;;;4993492;28;20110;-70
2021/01/12 03:25:41;;;;;;;23.33;9.35;;;13.10;62.00;;;;;;4991696;28;20022;-69
2021/01/12 03:28:07;;;;;;;22.98;7.55;;;13.20;61.60;;;;;;4989370;28;20364;-69
2021/01/12 03:30:34;;;;;;;16.63;7.75;;;13.20;61.00;;;;;;4987781;28;20109;-69
2021/01/12 03:33:01;;;;;;;16.95;9.05;;;13.30;61.30;;;;;;4990541;28;20033;-70
2021/01/12 03:35:27;;;;;;;11.10;7.28;;;13.30;61.60;;;;;;4989249;28;20023;-70
2021/01/12 03:37:54;;;;;;;17.83;7.65;;;13.20;62.40;;;;;;4987742;28;20030;-69
2021/01/12 03:40:20;;;;;;;23.42;9.25;;;13.20;62.40;;;;;;4990027;28;20098;-71
2021/01/12 03:42:47;;;;;;;18.88;9.00;;;13.20;62.20;;;;;;4976406;28;20031;-71
2021/01/12 03:45:13;;;;;;;17.02;8.48;;;13.40;62.10;;;;;;4995091;28;20186;-69
2021/01/12 03:47:40;;;;;;;18.88;8.52;;;13.30;62.30;;;;;;4994998;28;20452;-71
2021/01/12 03:50:08;;;;;;;17.95;7.55;;;13.40;61.70;;;;;;4994733;28;20030;-70
2021/01/12 03:52:34;;;;;;;12.88;6.28;;;13.30;62.30;;;;;;4994246;28;20475;-70
2021/01/12 03:55:01;;;;;;;18.33;6.97;;;13.20;62.30;;;;;;4980982;28;20648;-70
2021/01/12 03:57:28;;;;;;;11.80;7.57;;;13.10;62.70;;;;;;4992406;28;20030;-70
2021/01/12 03:59:54;;;;;;;13.43;6.63;;;13.20;62.00;;;;;;4992562;28;20456;-69
2021/01/12 04:02:21;;;;;;;11.65;5.68;;;13.20;61.30;;;;;;4989582;28;20420;-69
2021/01/12 04:04:47;;;;;;;14.05;7.70;;;13.10;62.50;;;;;;4995396;28;20457;-70
2021/01/12 04:07:13;;;;;;;15.63;8.05;;;13.10;62.60;;;;;;4989642;28;20033;-68
2021/01/12 04:09:40;;;;;;;18.23;10.10;;;13.10;61.80;;;;;;4988035;28;20031;-71
2021/01/12 04:12:07;;;;;;;10.82;7.35;;;13.10;61.70;;;;;;4991024;28;20058;-70
2021/01/12 04:14:34;;;;;;;14.93;7.45;;;13.10;62.50;;;;;;4982717;28;20025;-69
2021/01/12 04:17:00;;;;;;;15.43;6.47;;;13.20;62.00;;;;;;4995553;28;20065;-74
2021/01/12 04:19:26;;;;;;;21.48;8.57;;;13.10;62.30;;;;;;4997584;28;20113;-72
2021/01/12 04:21:53;;;;;;;18.90;7.68;;;13.10;61.60;;;;;;4994508;28;20033;-69
2021/01/12 04:24:19;;;;;;;14.27;6.32;;;13.10;61.60;;;;;;4993587;28;20415;-71
2021/01/12 04:26:45;;;;;;;11.77;6.63;;;13.10;61.50;;;;;;4994553;28;20034;-69
2021/01/12 04:29:12;;;;;;;12.68;6.35;;;13.10;62.10;;;;;;4988502;28;20029;-70
2021/01/12 04:31:38;;;;;;;10.73;5.80;;;13.00;61.50;;;;;;4986089;28;20030;-69
2021/01/12 04:34:05;;;;;;;11.82;6.43;;;13.00;61.60;;;;;;4988361;28;20019;-69
2021/01/12 04:36:31;;;;;;;16.17;6.97;;;13.10;62.10;;;;;;4991471;28;20121;-69
2021/01/12 04:38:57;;;;;;;11.20;6.88;;;13.30;61.60;;;;;;4994894;28;20037;-69
2021/01/12 04:41:24;;;;;;;16.95;7.85;;;13.30;61.40;;;;;;4993384;28;20404;-70
2021/01/12 04:43:50;;;;;;;20.80;8.48;;;13.10;61.80;;;;;;4981861;28;20067;-71
2021/01/12 04:46:17;;;;;;;9.00;5.13;;;12.90;62.40;;;;;;4992689;28;20042;-71
2021/01/12 04:48:44;;;;;;;10.57;6.10;;;12.70;63.70;;;;;;4994206;28;20038;-70
2021/01/12 04:51:11;;;;;;;17.65;7.40;;;12.70;63.00;;;;;;4994383;28;20026;-71
2021/01/12 04:53:49;;;;;;;10.35;5.95;;;12.80;62.10;;;;;;4994608;28;20093;-68
2021/01/12 04:56:19;;;;;;;9.15;5.38;;;12.80;62.80;;;;;;4994503;28;20030;-70
2021/01/12 04:58:47;;;;;;;12.13;6.05;;;12.70;63.10;;;;;;4994715;28;20030;-69
2021/01/12 05:01:22;;;;;;;12.05;6.22;;;12.50;63.60;;;;;;4993791;28;20022;-69
2021/01/12 05:03:53;;;;;;;12.63;6.95;;;12.50;64.10;;;;;;4986480;28;20112;-70
2021/01/12 05:06:22;;;;;;;17.48;8.25;;;12.60;62.90;;;;;;4984186;28;20030;-70
2021/01/12 05:09:00;;;;;;;17.98;7.10;;;12.50;63.10;;;;;;4989228;28;20036;-70
2021/01/12 05:11:34;;;;;;;10.60;6.80;;;12.50;63.10;;;;;;4993892;28;20345;-69
2021/01/12 05:14:09;;;;;;;10.30;6.57;;;12.50;62.70;;;;;;4991017;28;20133;-71
2021/01/12 05:16:52;;;;;;;16.25;6.15;;;12.60;62.40;;;;;;4992531;28;20066;-68
2021/01/12 05:19:22;;;;;;;;;;;12.50;62.10;;;;;;4990393;28;20034;-69
2021/01/12 05:21:50;;;;;;;14.25;7.18;;;12.50;62.50;;;;;;4997001;28;20362;-69
2021/01/12 05:24:21;;;;;;;13.43;7.15;;;12.30;63.20;;;;;;4995006;28;20444;-70
2021/01/12 05:26:48;;;;;;;15.85;7.38;;;12.30;62.70;;;;;;4994534;28;20045;-68
2021/01/12 05:29:15;;;;;;;16.50;7.07;;;12.30;62.50;;;;;;4996261;28;20048;-69
2021/01/12 05:31:45;;;;;;;19.00;7.53;;;12.50;63.20;;;;;;4994366;28;20026;-70
2021/01/12 05:34:13;;;;;;;19.48;8.25;;;12.70;62.30;;;;;;4995124;28;20077;-70
2021/01/12 05:36:53;;;;;;;14.70;6.68;;;12.60;62.80;;;;;;4997464;28;20034;-70
2021/01/12 05:39:26;;;;;;;14.40;6.28;;;12.60;62.60;;;;;;4997419;28;20018;-72
2021/01/12 05:41:54;;;;;;;15.63;7.32;;;12.60;62.60;;;;;;4994670;28;20026;-69
2021/01/12 05:44:23;;;;;;;11.90;6.35;;;12.40;62.90;;;;;;4996235;28;20502;-70
2021/01/12 05:46:53;;;;;;;15.70;7.68;;;12.40;63.50;;;;;;4996829;28;20034;-70
2021/01/12 05:49:24;;;;;;;11.95;6.85;;;12.40;63.20;;;;;;4997061;28;20037;-71
2021/01/12 05:51:52;;;;;;;11.15;6.80;;;12.60;63.40;;;;;;4994501;28;20121;-70
2021/01/12 05:54:29;;;;;;;12.35;6.57;;;12.70;63.00;;;;;;4988174;28;20029;-71
2021/01/12 05:57:08;;;;;;;18.60;7.35;;;12.60;62.80;;;;;;4993255;28;20019;-70
2021/01/12 05:59:36;;;;;;;10.57;6.88;;;12.60;63.70;;;;;;4993227;28;20026;-71
2021/01/12 06:02:34;;;;;;;11.30;6.88;;;12.60;63.90;;;;;;4995356;28;20026;-71
2021/01/12 06:05:01;;;;;;;16.88;7.60;;;12.60;63.60;;;;;;4994457;28;20208;-71
2021/01/12 06:07:27;;;;;;;11.35;7.13;;;12.70;63.30;;;;;;4991469;28;20100;-70
2021/01/12 06:09:55;;;;;;;15.45;7.00;;;12.60;62.90;;;;;;4992569;28;20113;-69
2021/01/12 06:12:25;;;;;;;14.32;6.53;;;12.30;64.00;;;;;;4996948;28;20041;-70
2021/01/12 06:14:58;;;;;;;13.88;7.47;;;12.20;64.90;;;;;;4997147;28;20104;-71
2021/01/12 06:17:31;;;;;;;;;;;12.10;65.00;;;;;;4995268;28;20045;-70
2021/01/12 06:20:04;;;;;;;24.38;7.70;;;12.10;64.90;;;;;;4995732;28;20000;-71
2021/01/12 06:22:42;;;;;;;15.40;7.30;;;12.20;65.10;;;;;;4987490;28;20022;-68
2021/01/12 06:25:10;;;;;;;18.30;7.22;;;12.40;64.50;;;;;;4989998;28;20579;-69
2021/01/12 06:27:38;;;;;;;14.82;7.13;;;12.40;64.30;;;;;;4994846;28;20030;-69
2021/01/12 06:30:07;;;;;;;13.40;6.93;;;12.40;64.60;;;;;;4991126;28;20101;-69
2021/01/12 06:32:34;;;;;;;11.80;7.82;;;12.50;64.50;;;;;;4994571;28;20037;-70
2021/01/12 06:35:07;;;;;;;13.75;7.05;;;12.40;64.40;;;;;;4994160;28;20023;-71
2021/01/12 06:37:37;;;;;;;12.25;7.43;;;12.40;65.20;;;;;;4994347;28;20019;-69
2021/01/12 06:40:07;;;;;;;20.25;7.70;;;12.50;64.70;;;;;;5006589;28;20100;-69
2021/01/12 06:42:34;;;;;;;11.43;7.65;;;12.60;65.00;;;;;;4993710;28;20029;-71
2021/01/12 06:45:01;;;;;;;12.75;7.05;;;12.60;64.70;;;;;;4993771;28;20035;-70
2021/01/12 06:47:30;;;;;;;12.40;7.00;;;12.70;64.60;;;;;;4990818;28;20027;-71
2021/01/12 06:50:24;;;;;;;11.70;6.97;;;12.80;64.30;;;;;;4988748;28;20419;-71
2021/01/12 06:52:51;;;;;;;9.93;6.07;;;12.80;64.40;;;;;;4987259;28;20140;-70
2021/01/12 06:55:20;;;;;;;14.80;7.55;;;12.80;64.40;;;;;;4991942;28;20015;-72
2021/01/12 06:57:50;;;;;;;19.42;7.10;;;12.80;64.50;;;;;;5007709;28;20030;-70
2021/01/12 07:00:19;;;;;;;13.90;6.93;;;12.80;64.30;;;;;;4995213;28;20038;-69
2021/01/12 07:02:57;;;;;;;17.67;8.65;;;12.70;64.10;;;;;;4992966;28;20077;-69
2021/01/12 07:05:24;;;;;;;18.20;7.57;;;12.50;64.50;;;;;;4994312;28;20026;-70
2021/01/12 07:07:53;;;;;;;9.88;6.57;;;12.50;65.10;;;;;;4993844;28;20053;-70
2021/01/12 07:10:25;;;;;;;19.80;7.22;;;12.60;65.40;;;;;;4996180;28;20027;-70
2021/01/12 07:12:53;;;;;;;12.27;7.07;;;12.70;64.90;;;;;;4990583;28;20022;-70
2021/01/12 07:15:21;;;;;;;15.57;7.25;;;12.60;64.90;;;;;;4994850;28;20037;-70
2021/01/12 07:17:49;;;;;;;19.58;8.75;;;12.50;65.20;;;;;;4993888;28;20030;-70
2021/01/12 07:20:18;;;;;;;10.88;7.57;;;12.50;65.70;;;;;;4994440;28;20085;-68
2021/01/12 07:23:03;;;;;;;15.48;8.45;;;12.40;65.40;;;;;;4993519;28;20620;-69
2021/01/12 07:25:39;;;;;;;15.48;7.32;;;12.40;65.90;;;;;;4997301;28;20034;-74
2021/01/12 07:28:10;;;;;;;11.38;6.97;;;12.50;66.00;;;;;;4993789;28;20026;-69
2021/01/12 07:30:41;;;;;;;21.27;7.75;;;12.60;65.00;;;;;;4994379;28;20360;-70
2021/01/12 07:33:19;;;;;;;17.60;8.52;;;12.50;65.30;;;;;;4984543;28;20365;-70
2021/01/12 07:35:48;;;;;;;16.33;7.78;;;12.50;65.60;;;;;;4987337;28;20087;-70
2021/01/12 07:38:16;;;;;;;13.18;7.60;;;12.50;65.90;;;;;;4979478;28;20109;-70
2021/01/12 07:40:42;;;;;;;13.85;7.55;;;12.40;65.80;;;;;;4987839;28;20030;-70
2021/01/12 07:43:15;;;;;;;13.05;7.72;;;12.30;66.00;;;;;;4994457;28;20452;-70
2021/01/12 07:45:42;;;;;;;15.38;7.63;;;12.10;66.70;;;;;;4985163;28;20042;-69
2021/01/12 07:48:09;;;;;;;12.35;7.82;;;12.20;66.60;;;;;;4976115;28;20038;-70
2021/01/12 07:50:36;;;;;;;16.77;7.57;;;12.30;66.30;;;;;;4988553;28;20031;-70
2021/01/12 07:53:06;;;;;;;10.90;7.55;;;12.40;66.00;;;;;;4988779;28;20029;-69
2021/01/12 07:55:32;;;;;;;14.15;7.25;;;12.40;66.00;;;;;;4995015;28;20026;-69
2021/01/12 07:58:00;;;;;;;19.38;8.27;;;12.40;66.30;;;;;;4987562;28;20113;-69
2021/01/12 08:00:29;;;;;;;15.02;8.27;;;12.50;66.50;;;;;;4991899;28;20029;-69
2021/01/12 08:02:56;;;;;;;23.40;7.90;;;12.50;66.60;;;;;;4988878;28;20041;-70
2021/01/12 08:05:25;;;;;;;14.48;7.10;;;12.50;66.30;;;;;;4994777;28;20042;-69
2021/01/12 08:07:59;;;;;;;11.70;7.18;;;12.50;66.60;;;;;;4990153;28;20042;-69
2021/01/12 08:10:26;;;;;;;12.43;7.15;;;12.50;66.00;;;;;;4990469;28;20360;-69
2021/01/12 08:13:01;;;;;;;13.27;6.05;;;12.50;66.20;;;;;;4991305;28;20023;-69
2021/01/12 08:15:28;;;;;;;16.83;7.30;;;12.70;66.20;;;;;;4990550;28;20045;-69
2021/01/12 08:17:54;;;;;;;10.32;7.47;;;12.60;65.70;;;;;;4986500;28;20496;-69
2021/01/12 08:20:21;;;;;;;10.50;7.10;;;12.50;66.20;;;;;;4988713;28;20026;-69
2021/01/12 08:22:51;;;;;;;19.75;8.82;;;12.50;66.50;;;;;;4986180;28;20031;-69
2021/01/12 08:25:18;;;;;;;13.73;8.60;;;12.60;66.30;;;;;;4989123;28;20089;-69
2021/01/12 08:28:04;;;;;;;10.85;6.40;;;12.70;66.00;;;;;;4994159;28;20093;-70
2021/01/12 08:30:33;;;;;;;14.80;7.32;;;12.60;65.80;;;;;;4995082;28;20093;-70
2021/01/12 08:33:03;;;;;;;16.48;6.90;;;12.60;66.60;;;;;;4995343;28;20025;-69
2021/01/12 08:35:31;;;;;;;20.67;9.20;;;12.60;66.40;;;;;;4995433;28;20021;-69
2021/01/12 08:37:59;;;;;;;14.25;8.27;;;12.60;66.10;;;;;;4986220;28;20089;-69
2021/01/12 08:40:30;;;;;;;14.50;7.72;;;12.60;66.20;;;;;;4980293;28;20038;-70
2021/01/12 08:42:59;;;;;;;13.48;7.75;;;12.50;66.20;;;;;;4994973;28;20395;-69
2021/01/12 08:45:26;;;;;;;16.00;7.93;;;12.50;66.20;;;;;;4994159;28;20368;-70
2021/01/12 08:47:52;;;;;;;12.55;8.27;;;12.50;66.70;;;;;;4991761;28;20022;-69
2021/01/12 08:50:19;;;;;;;12.45;7.43;;;12.40;66.70;;;;;;4992757;28;20015;-69
2021/01/12 08:52:50;;;;;;;15.00;7.82;;;12.20;67.10;;;;;;4993711;28;20064;-69
2021/01/12 08:55:18;;;;;;;13.13;8.32;;;12.20;67.20;;;;;;4992773;28;20023;-68
2021/01/12 08:58:04;;;;;;;19.92;7.55;;;12.30;66.60;;;;;;4998575;28;20019;-68
2021/01/12 09:00:41;;;;;;;17.65;8.27;;;12.30;66.70;;;;;;4998499;28;20046;-70
2021/01/12 09:03:08;;;;;;;18.65;7.22;;;12.20;66.90;;;;;;4998791;28;20456;-69
2021/01/12 09:05:39;;;;;;;16.85;8.57;;;12.10;67.20;;;;;;4998209;28;20030;-69
2021/01/12 09:08:16;;;;;;;13.02;8.40;;;12.10;67.40;;;;;;5002871;28;20061;-69
2021/01/12 09:10:43;;;;;;;11.48;6.85;;;12.30;66.80;;;;;;4984249;28;20023;-69
2021/01/12 09:13:11;;;;;;;12.00;6.95;;;12.20;66.80;;;;;;5011337;28;20026;-69
2021/01/12 09:15:40;;;;;;;17.50;7.72;;;12.30;66.50;;;;;;5001311;28;20022;-70
2021/01/12 09:18:09;;;;;;;16.40;9.50;;;12.30;66.80;;;;;;4998375;28;20034;-69
2021/01/12 09:20:38;;;;;;;16.60;9.27;;;12.30;67.00;;;;;;4998075;28;20102;-69
2021/01/12 09:23:12;;;;;;;17.98;7.63;;;12.30;66.70;;;;;;4996927;28;20168;-68
2021/01/12 09:25:41;;;;;;;14.80;7.05;;;12.30;67.20;;;;;;4979183;28;20050;-69
2021/01/12 09:28:09;;;;;;;12.70;6.95;;;12.30;67.00;;;;;;4995263;28;20081;-70
2021/01/12 09:30:35;;;;;;;14.55;7.95;;;12.10;66.90;;;;;;4998596;28;20062;-69
2021/01/12 09:33:02;;;;;;;16.10;7.82;;;12.00;67.60;;;;;;4995122;28;20030;-69
2021/01/12 09:35:28;;;;;;;14.18;7.93;;;11.80;67.70;;;;;;4999676;28;20014;-70
2021/01/12 09:38:02;;;;;;;15.07;8.20;;;11.80;67.70;;;;;;5000891;28;20037;-69
2021/01/12 09:40:29;;;;;;;10.60;8.02;;;11.90;67.80;;;;;;4999111;28;20448;-68
2021/01/12 09:42:57;;;;;;;9.40;7.45;;;12.00;68.00;;;;;;4996568;28;20018;-69
2021/01/12 09:45:25;;;;;;;14.18;8.20;;;12.10;67.80;;;;;;4997212;28;20038;-70
2021/01/12 09:47:52;;;;;;;12.00;7.82;;;12.10;67.60;;;;;;4997739;28;20356;-70
2021/01/12 09:50:18;;;;;;;17.25;7.57;;;12.10;68.10;;;;;;4997762;28;20476;-69
2021/01/12 09:52:45;;;;;;;14.95;8.18;;;12.10;67.60;;;;;;4997368;28;20022;-69
2021/01/12 09:55:11;;;;;;;18.67;8.38;;;12.20;67.80;;;;;;4996799;28;20018;-69
2021/01/12 09:57:38;;;;;;;13.85;8.68;;;12.30;67.30;;;;;;4997228;28;20026;-70
2021/01/12 10:00:09;;;;;;;18.63;8.55;;;12.30;68.10;;;;;;4997340;28;20472;-69
2021/01/12 10:02:36;;;;;;;14.27;8.07;;;12.30;67.30;;;;;;4997095;28;20031;-69
2021/01/12 10:05:02;;;;;;;17.20;9.00;;;12.30;67.40;;;;;;4995858;28;20516;-68
2021/01/12 10:07:29;;;;;;;20.33;10.25;;;12.20;67.60;;;;;;4996960;28;20022;-69
2021/01/12 10:09:55;;;;;;;15.13;9.90;;;12.20;67.50;;;;;;4996821;28;20384;-70
2021/01/12 10:12:22;;;;;;;14.30;8.45;;;12.10;67.70;;;;;;4996630;28;20030;-68
2021/01/12 10:14:48;;;;;;;15.27;9.07;;;11.90;68.20;;;;;;4997450;28;20094;-68
2021/01/12 10:17:15;;;;;;;15.60;8.27;;;11.90;68.70;;;;;;4997288;28;20023;-68
2021/01/12 10:19:41;;;;;;;20.13;7.88;;;11.90;68.90;;;;;;4996790;28;20080;-69
2021/01/12 10:22:08;;;;;;;11.00;7.85;;;11.90;68.90;;;;;;4996448;28;20022;-69
2021/01/12 10:24:34;;;;;;;15.70;9.32;;;12.00;69.20;;;;;;4996874;28;20023;-69
2021/01/12 10:27:01;;;;;;;16.15;7.82;;;12.00;69.00;;;;;;4982405;28;20030;-69
2021/01/12 10:29:29;;;;;;;20.80;7.57;;;12.10;68.30;;;;;;4996514;28;20483;-69
2021/01/12 10:31:55;;;;;;;15.93;7.95;;;12.20;68.00;;;;;;4997402;28;20455;-68
2021/01/12 10:34:22;;;;;;;12.07;7.78;;;12.10;68.30;;;;;;5010132;28;20019;-70
2021/01/12 10:36:52;;;;;;;14.30;8.23;;;11.90;69.00;;;;;;4996503;28;20018;-69
2021/01/12 10:39:19;;;;;;;14.93;8.80;;;11.90;69.40;;;;;;4999199;28;20018;-72
2021/01/12 10:41:46;;;;;;;12.55;7.60;;;12.00;69.00;;;;;;4998092;28;20033;-69
2021/01/12 10:44:12;;;;;;;14.68;8.65;;;12.00;68.90;;;;;;4996123;28;20033;-69
2021/01/12 10:46:39;;;;;;;17.40;8.98;;;12.10;68.50;;;;;;4996072;28;20050;-69
2021/01/12 10:49:06;;;;;;;13.63;7.13;;;12.10;68.60;;;;;;4992753;28;20034;-69
2021/01/12 10:51:32;;;;;;;11.15;7.95;;;12.20;68.30;;;;;;4995542;28;20023;-68
2021/01/12 10:53:59;;;;;;;21.95;9.65;;;12.10;68.30;;;;;;4996349;28;20097;-69
2021/01/12 10:59:33;;;;;;;16.38;7.82;;;12.00;69.10;;;;;;4995651;28;20368;-69
2021/01/12 11:02:04;;;;;;;12.85;7.40;;;11.80;69.20;;;;;;4992177;28;20035;-69
2021/01/12 11:10:17;;;;;;;10.93;7.93;;;11.90;69.60;;;;;;4995501;28;20024;-70
2021/01/12 11:12:44;;;;;;;13.15;7.32;;;12.00;68.80;;;;;;4995826;28;20030;-70
2021/01/12 11:15:11;;;;;;;13.40;7.85;;;11.90;68.80;;;;;;4995809;28;20038;-70
2021/01/12 11:17:37;;;;;;;13.18;8.15;;;11.80;69.20;;;;;;4996159;28;20118;-70
2021/01/12 11:20:06;;;;;;;19.30;9.23;;;11.80;69.40;;;;;;4995369;28;20026;-70
2021/01/12 11:22:33;;;;;;;14.35;9.68;;;11.90;69.00;;;;;;4995131;28;20057;-70
2021/01/12 11:25:05;;;;;;;19.23;9.18;;;11.90;69.00;;;;;;4989768;28;20057;-69
2021/01/12 11:27:33;;;;;;;15.32;9.60;;;11.90;69.30;;;;;;4993798;28;20078;-69
2021/01/12 11:30:00;;;;;;;11.55;8.02;;;11.80;69.20;;;;;;4995849;28;20034;-69
2021/01/12 11:32:30;;;;;;;11.95;9.00;;;11.80;69.40;;;;;;4995696;28;20018;-69
2021/01/12 11:34:57;;;;;;;21.45;8.13;;;11.80;69.20;;;;;;4992421;28;20033;-68
2021/01/12 11:37:23;;;;;;;19.75;9.50;;;11.90;69.50;;;;;;4994505;28;20030;-69
2021/01/12 11:39:50;;;;;;;22.05;8.82;;;11.90;68.70;;;;;;4995117;28;20027;-70
2021/01/12 11:42:16;;;;;;;15.43;9.05;;;11.80;69.10;;;;;;4995792;28;20054;-72
2021/01/12 11:44:43;;;;;;;17.45;7.60;;;11.70;69.00;;;;;;4996695;28;20465;-69
2021/01/12 11:47:10;;;;;;;18.85;8.80;;;11.70;69.20;;;;;;4994458;28;20523;-68
2021/01/12 11:49:37;;;;;;;21.42;8.95;;;11.70;69.20;;;;;;4994290;28;20034;-70
2021/01/12 11:52:05;;;;;;;16.48;9.00;;;11.80;68.90;;;;;;4995384;28;20053;-70
2021/01/12 11:54:32;;;;;;;22.60;9.80;;;11.70;68.50;;;;;;4995580;28;20014;-69
2021/01/12 11:57:00;;;;;;;21.40;9.65;;;11.70;68.70;;;;;;4995007;28;20027;-70
2021/01/12 11:59:34;;;;;;;18.23;11.27;;;11.80;69.00;;;;;;4994425;28;20072;-70
2021/01/12 12:02:01;;;;;;;28.40;13.30;;;11.80;68.90;;;;;;4994032;28;20117;-69
2021/01/12 12:04:27;;;;;;;25.98;10.52;;;11.80;68.80;;;;;;4995105;28;20029;-69
2021/01/12 12:07:03;;;;;;;24.63;11.13;;;11.80;68.60;;;;;;4996198;28;20372;-69
2021/01/12 12:09:33;;;;;;;20.33;11.23;;;11.80;68.80;;;;;;5003502;28;20081;-69
2021/01/12 12:12:01;;;;;;;24.40;13.88;;;11.70;69.20;;;;;;4994572;28;20018;-69
2021/01/12 12:14:28;;;;;;;22.13;11.43;;;11.80;69.20;;;;;;4989727;28;20443;-69
2021/01/12 12:16:56;;;;;;;16.75;11.02;;;11.80;69.10;;;;;;4992314;28;20019;-71
2021/01/12 12:19:23;;;;;;;21.00;11.50;;;11.90;68.80;;;;;;4993815;28;20045;-69
2021/01/12 12:21:54;;;;;;;19.35;12.57;;;12.00;69.20;;;;;;4994811;28;20045;-69
2021/01/12 12:24:26;;;;;;;18.02;11.20;;;11.90;68.50;;;;;;4997608;28;20030;-71
2021/01/12 12:26:53;;;;;;;19.77;12.20;;;11.70;69.20;;;;;;4996943;28;20026;-69
2021/01/12 12:29:21;;;;;;;26.73;12.55;;;11.70;69.50;;;;;;4998416;28;20469;-69
2021/01/12 12:31:53;;;;;;;19.13;12.00;;;11.80;69.30;;;;;;4996347;28;20026;-69
2021/01/12 12:34:20;;;;;;;38.83;15.77;;;11.80;68.90;;;;;;5004312;28;20360;-69
2021/01/12 12:36:46;;;;;;;16.90;11.88;;;11.80;68.80;;;;;;4998719;28;20121;-69
2021/01/12 12:39:12;;;;;;;17.25;12.05;;;11.70;69.20;;;;;;4998466;28;20018;-70
2021/01/12 12:41:39;;;;;;;22.77;11.32;;;11.60;69.10;;;;;;4997543;28;20035;-70
2021/01/12 12:44:06;;;;;;;23.50;10.88;;;11.50;69.50;;;;;;4998201;28;20081;-70
2021/01/12 12:46:32;;;;;;;18.05;12.18;;;11.50;69.70;;;;;;4999035;28;20481;-73
2021/01/12 12:48:59;;;;;;;24.55;11.05;;;11.50;69.90;;;;;;5001930;28;20367;-70
2021/01/12 12:51:26;;;;;;;23.35;11.98;;;11.60;69.60;;;;;;4999621;28;20065;-70